Time;durP1;ratioP1;P1;durP2;ratioP2;P2;SDS_P1;SDS_P2;PMS_P1;PMS_P2;Temp;Humidity;BMP_temperature;BMP_pressure;BME280_temperature;BME280_humidity;BME280_pressure;Samples;Min_cycle;Max_cycle;Signal;HPM_P1;HPM_P2
2023/01/13 00:00:23;;;;;;;1.80;0.93;;;9.60;75.90;;;9.36;65.81;97536.88;5043840;28;22561;-69
2023/01/13 00:02:52;;;;;;;2.27;1.10;;;9.60;76.00;;;9.38;66.05;97533.97;5042111;28;20457;-69
2023/01/13 00:05:19;;;;;;;1.40;1.10;;;9.60;76.00;;;9.30;65.88;97530.47;5038331;28;22744;-68
2023/01/13 00:07:48;;;;;;;1.30;0.90;;;9.60;75.80;;;9.37;65.28;97535.00;5036099;28;20515;-68
2023/01/13 00:10:15;;;;;;;1.57;0.90;;;9.60;75.80;;;9.35;65.71;97535.22;5033409;28;20904;-68
2023/01/13 00:12:42;;;;;;;0.97;0.70;;;9.60;75.70;;;9.38;65.50;97536.66;5038261;28;20543;-69
2023/01/13 00:15:12;;;;;;;3.00;1.10;;;9.60;75.70;;;9.43;65.33;97528.72;5049097;28;20455;-69
2023/01/13 00:17:39;;;;;;;4.97;1.10;;;9.70;75.60;;;9.31;65.22;97515.94;5039561;28;20552;-67
2023/01/13 00:20:12;;;;;;;4.90;1.30;;;9.60;75.50;;;9.43;64.92;97517.94;5045609;28;20463;-70
2023/01/13 00:22:39;;;;;;;3.07;1.40;;;9.70;75.60;;;9.41;65.19;97517.34;5032013;28;20508;-69
2023/01/13 00:25:08;;;;;;;1.97;1.33;;;9.70;75.50;;;9.41;64.85;97522.75;5033534;28;20461;-70
2023/01/13 00:27:35;;;;;;;2.20;0.90;;;9.70;75.60;;;9.55;65.21;97516.19;5034496;28;20893;-69
2023/01/13 00:30:03;;;;;;;1.33;0.87;;;9.70;75.60;;;9.47;65.33;97514.59;5026165;28;20505;-69
2023/01/13 00:32:30;;;;;;;3.30;0.80;;;9.60;75.60;;;9.43;65.10;97504.47;5051548;28;20479;-68
2023/01/13 00:34:57;;;;;;;1.37;0.70;;;9.60;75.60;;;9.49;65.16;97501.72;5047319;28;21050;-69
2023/01/13 00:37:27;;;;;;;2.87;0.87;;;9.70;75.50;;;9.57;64.40;97491.69;5047029;28;20535;-68
2023/01/13 00:39:54;;;;;;;1.43;0.80;;;9.70;75.30;;;9.35;65.12;97494.78;5049148;28;20468;-68
2023/01/13 00:45:08;;;;;;;2.20;0.80;;;9.70;75.40;;;9.43;65.13;97494.53;5036626;28;20496;-69
2023/01/13 00:47:43;;;;;;;1.30;0.60;;;9.70;75.40;;;9.58;65.03;97504.94;5039491;28;20468;-70
2023/01/13 00:50:19;;;;;;;2.80;0.87;;;9.70;75.50;;;9.50;65.28;97495.28;5042987;28;20991;-68
2023/01/13 00:52:47;;;;;;;1.67;0.70;;;9.70;75.50;;;9.43;65.78;97501.75;5066124;28;20543;-68
2023/01/13 00:55:15;;;;;;;1.83;0.80;;;9.70;75.50;;;9.54;65.39;97498.34;5044954;28;20526;-69
2023/01/13 00:57:42;;;;;;;3.00;1.10;;;9.70;75.40;;;9.53;64.31;97496.72;5033951;28;21017;-69
2023/01/13 01:00:11;;;;;;;1.53;0.60;;;9.70;75.40;;;9.54;64.39;97489.44;5036233;28;21019;-67
2023/01/13 01:02:40;;;;;;;1.53;0.77;;;9.70;75.50;;;9.54;65.12;97490.25;5030823;28;20549;-69
2023/01/13 01:05:08;;;;;;;0.93;0.80;;;9.70;75.50;;;9.35;65.96;97490.22;5033386;28;20477;-69
2023/01/13 01:07:35;;;;;;;3.93;0.80;;;9.70;75.50;;;9.42;66.14;97483.94;5024740;28;20448;-68
2023/01/13 01:10:05;;;;;;;1.47;0.70;;;9.70;75.50;;;9.43;65.28;97485.59;5024435;28;20446;-68
2023/01/13 01:12:34;;;;;;;3.57;0.90;;;9.70;75.60;;;9.50;64.48;97476.38;5034160;28;20529;-69
2023/01/13 01:15:01;;;;;;;1.80;0.70;;;9.70;75.50;;;9.48;65.11;97483.06;5035787;28;21013;-68
2023/01/13 01:17:29;;;;;;;6.03;0.90;;;9.70;75.70;;;9.36;65.93;97474.88;5044455;28;20469;-68
2023/01/13 01:19:57;;;;;;;1.20;0.77;;;9.70;75.50;;;9.44;65.38;97481.84;5051425;28;20936;-68
2023/01/13 01:22:24;;;;;;;1.90;0.97;;;9.70;75.50;;;9.47;65.05;97481.41;5031021;28;20534;-69
2023/01/13 01:24:51;;;;;;;1.50;1.13;;;9.70;75.30;;;9.45;65.36;97484.34;5048877;28;20445;-68
2023/01/13 01:27:20;;;;;;;3.53;0.90;;;9.70;75.50;;;9.38;64.74;97477.34;5056332;28;20448;-68
2023/01/13 01:29:47;;;;;;;1.20;0.60;;;9.70;75.30;;;9.43;65.51;97477.50;5025297;28;20525;-67
2023/01/13 01:32:14;;;;;;;2.13;0.70;;;9.70;75.30;;;9.33;65.74;97476.16;5055324;28;20643;-70
2023/01/13 01:34:41;;;;;;;1.70;0.80;;;9.70;75.40;;;9.39;65.29;97473.59;5043914;28;20872;-67
2023/01/13 01:37:08;;;;;;;1.63;0.73;;;9.70;75.40;;;9.39;65.66;97476.31;5044882;28;20483;-69
2023/01/13 01:39:36;;;;;;;1.67;0.60;;;9.70;75.40;;;9.47;65.58;97476.00;5047896;28;20471;-68
2023/01/13 01:45:01;;;;;;;0.60;0.50;;;9.70;75.40;;;9.18;65.14;97419.06;5042916;28;20453;-67
2023/01/13 01:47:30;;;;;;;1.80;0.57;;;9.80;75.30;;;9.42;65.58;97473.16;5036153;28;20452;-68
2023/01/13 01:49:59;;;;;;;1.57;0.80;;;9.80;75.20;;;9.54;64.81;97455.22;5057310;28;20524;-69
2023/01/13 01:52:31;;;;;;;1.40;0.70;;;9.80;75.30;;;9.50;64.60;97454.81;5052374;28;20484;-68
2023/01/13 01:55:05;;;;;;;2.77;0.70;;;9.80;75.20;;;9.41;65.62;97448.09;5058222;28;20487;-67
2023/01/13 01:57:39;;;;;;;1.17;0.73;;;9.80;75.20;;;9.53;64.90;97433.84;5044227;28;20499;-67
2023/01/13 02:00:10;;;;;;;1.30;0.60;;;9.80;75.20;;;9.39;66.20;97439.38;5053132;28;20453;-68
2023/01/13 02:02:38;;;;;;;1.40;0.80;;;9.70;75.30;;;9.47;64.96;97432.84;5033181;28;20489;-68
2023/01/13 02:05:06;;;;;;;2.43;0.70;;;9.70;75.40;;;9.35;65.70;97430.91;5049476;28;20513;-69
2023/01/13 02:07:37;;;;;;;2.30;0.77;;;9.70;75.40;;;9.32;65.79;97436.72;5044973;28;20624;-68
2023/01/13 02:10:12;;;;;;;2.37;0.70;;;9.60;75.40;;;9.07;66.38;97421.41;5018685;28;20828;-68
2023/01/13 02:12:40;;;;;;;0.77;0.60;;;9.60;75.60;;;9.18;65.85;97437.91;5043457;28;20551;-69
2023/01/13 02:15:11;;;;;;;1.70;0.80;;;9.50;75.60;;;9.31;65.85;97436.97;5018551;28;20539;-70
2023/01/13 02:18:00;;;;;;;0.90;0.60;;;9.50;75.60;;;9.24;65.54;97434.31;5053638;28;20555;-68
2023/01/13 02:21:18;;;;;;;1.13;0.60;;;9.60;75.70;;;9.26;66.64;97426.84;5042862;28;20948;-67
2023/01/13 02:28:02;;;;;;;0.93;0.60;;;9.70;75.70;;;9.30;65.85;97406.47;5009475;28;20455;-68
2023/01/13 02:33:59;;;;;;;0.80;0.60;;;9.60;75.60;;;9.18;66.20;97409.09;5056117;28;20488;-69
2023/01/13 02:36:36;;;;;;;0.87;0.67;;;9.60;75.70;;;9.21;66.10;97407.81;5058610;28;20479;-68
2023/01/13 02:39:09;;;;;;;3.53;1.20;;;9.50;75.80;;;9.24;66.90;97390.38;5038404;28;20937;-68
2023/01/13 02:44:33;;;;;;;1.50;0.50;;;9.60;75.80;;;9.35;65.65;97393.16;5039779;28;20451;-69
2023/01/13 02:47:08;;;;;;;2.73;0.70;;;9.60;75.70;;;9.47;65.49;97395.09;5040299;28;20456;-70
2023/01/13 02:49:42;;;;;;;2.57;0.73;;;9.70;75.70;;;9.40;65.24;97394.38;5049228;28;20466;-71
2023/01/13 02:52:15;;;;;;;2.20;0.60;;;9.70;75.50;;;9.53;64.66;97396.94;5050842;28;20959;-68
2023/01/13 02:54:49;;;;;;;1.10;0.57;;;9.80;75.50;;;9.59;65.27;97393.31;5049244;28;20460;-67
2023/01/13 02:57:18;;;;;;;1.40;0.73;;;9.80;75.50;;;9.38;65.88;97391.06;5047597;28;20847;-68
2023/01/13 02:59:46;;;;;;;1.77;0.53;;;9.80;75.50;;;9.47;65.15;97384.31;5053548;28;20552;-68
2023/01/13 03:02:19;;;;;;;1.93;0.67;;;9.80;75.40;;;9.57;65.78;97395.44;5054907;28;20522;-69
2023/01/13 03:04:55;;;;;;;1.17;0.50;;;9.80;75.50;;;9.70;65.02;97393.63;5050998;28;20453;-69
2023/01/13 03:07:47;;;;;;;1.00;0.60;;;9.90;75.50;;;9.49;65.53;97376.84;5032195;28;20865;-68
2023/01/13 03:10:27;;;;;;;2.37;0.90;;;9.80;75.50;;;9.48;66.20;97383.31;5043574;28;20589;-68
2023/01/13 03:13:03;;;;;;;1.53;0.60;;;9.80;75.50;;;9.59;65.67;97377.13;5039030;28;20473;-68
2023/01/13 03:15:43;;;;;;;1.33;0.80;;;9.90;75.40;;;9.64;64.92;97374.63;5033419;28;20550;-69
2023/01/13 03:18:28;;;;;;;1.03;0.50;;;9.90;75.50;;;9.71;65.17;97374.53;5040284;28;20443;-68
2023/01/13 03:21:05;;;;;;;3.27;0.53;;;9.90;75.30;;;9.69;65.46;97359.63;5037161;28;21187;-68
2023/01/13 03:23:37;;;;;;;1.70;0.70;;;9.90;75.40;;;9.62;65.19;97376.69;5036633;28;20963;-67
2023/01/13 03:26:10;;;;;;;3.47;0.70;;;9.90;75.40;;;9.69;65.37;97383.91;5038613;28;20541;-68
2023/01/13 03:28:42;;;;;;;1.00;0.87;;;9.90;75.50;;;9.49;66.07;97376.84;5058130;28;20909;-68
2023/01/13 03:31:17;;;;;;;2.17;0.90;;;9.80;75.50;;;9.49;65.33;97372.28;5039994;28;20463;-68
2023/01/13 03:33:53;;;;;;;3.23;0.80;;;9.80;75.50;;;9.45;65.45;97375.63;5055560;28;20544;-69
2023/01/13 03:36:24;;;;;;;1.00;0.60;;;9.70;75.60;;;9.61;65.43;97380.44;5049017;28;20535;-68
2023/01/13 03:38:56;;;;;;;2.60;0.97;;;9.70;75.60;;;9.53;65.46;97375.34;5049197;28;20543;-68
2023/01/13 03:41:29;;;;;;;2.00;0.80;;;9.70;75.60;;;9.42;65.76;97374.22;5027669;28;20822;-68
2023/01/13 03:44:22;;;;;;;1.70;0.90;;;9.60;75.70;;;9.37;65.62;97367.84;5012801;28;20453;-68
2023/01/13 03:47:01;;;;;;;1.27;0.60;;;9.60;75.70;;;9.19;65.62;97346.03;5055656;28;20477;-68
2023/01/13 03:49:37;;;;;;;0.93;0.83;;;9.70;75.70;;;9.40;66.04;97367.41;5054990;28;20509;-68
2023/01/13 03:52:12;;;;;;;2.20;0.80;;;9.60;75.80;;;9.50;65.68;97360.44;5054342;28;20456;-68
2023/01/13 03:54:48;;;;;;;1.67;0.70;;;9.60;75.80;;;9.41;66.31;97369.06;5062668;28;20911;-69
2023/01/13 03:57:18;;;;;;;1.33;0.90;;;9.60;75.90;;;9.43;65.84;97372.34;5066260;28;20975;-69
2023/01/13 03:59:50;;;;;;;1.00;0.70;;;9.60;75.90;;;9.48;65.37;97373.31;5062715;28;21385;-68
2023/01/13 04:02:26;;;;;;;3.60;1.03;;;9.60;75.90;;;9.51;66.44;97369.38;5034871;28;20447;-68
2023/01/13 04:04:58;;;;;;;2.50;1.23;;;9.70;76.00;;;9.40;66.17;97370.09;5047804;28;20958;-67
2023/01/13 04:07:39;;;;;;;1.40;0.90;;;9.70;75.90;;;9.47;65.38;97368.97;5041801;28;20468;-70
2023/01/13 04:10:10;;;;;;;2.13;1.10;;;9.70;76.00;;;9.49;65.78;97371.47;5018953;28;21047;-69
2023/01/13 04:13:03;;;;;;;2.60;1.27;;;9.70;76.00;;;9.41;65.94;97366.34;5012381;28;21021;-68
2023/01/13 04:15:36;;;;;;;1.83;1.30;;;9.60;75.90;;;9.34;65.75;97364.56;5032839;28;20462;-67
2023/01/13 04:18:12;;;;;;;1.23;0.97;;;9.60;75.90;;;9.39;66.06;97376.53;5034756;28;20538;-67
2023/01/13 04:20:42;;;;;;;3.07;1.60;;;9.60;76.00;;;9.40;65.85;97368.25;5034153;28;20511;-68
2023/01/13 04:23:10;;;;;;;2.03;1.00;;;9.60;76.00;;;9.37;66.09;97367.84;5017381;28;20454;-68
2023/01/13 04:25:37;;;;;;;2.00;0.80;;;9.60;76.30;;;9.25;66.40;97376.69;5016836;28;20578;-69
2023/01/13 04:28:05;;;;;;;1.07;0.70;;;9.60;76.00;;;9.30;66.38;97374.13;5035323;28;20999;-68
2023/01/13 04:30:32;;;;;;;0.70;0.70;;;9.50;76.10;;;9.17;66.57;97377.78;5035655;28;20479;-68
2023/01/13 04:33:00;;;;;;;3.03;1.00;;;9.50;76.20;;;9.13;67.04;97378.44;5032493;28;21026;-69
2023/01/13 04:35:27;;;;;;;2.00;1.30;;;9.40;76.40;;;9.09;67.24;97383.44;5035574;28;20449;-69
2023/01/13 04:37:56;;;;;;;2.00;0.87;;;9.40;76.60;;;8.62;67.09;97298.47;5037487;28;20959;-68
2023/01/13 04:40:23;;;;;;;1.40;0.80;;;9.40;76.50;;;9.18;67.25;97370.53;5045679;28;20473;-67
2023/01/13 04:42:50;;;;;;;1.57;0.80;;;9.40;76.60;;;9.16;67.41;97367.22;5020528;28;20450;-68
2023/01/13 04:45:18;;;;;;;1.40;1.10;;;9.40;76.60;;;9.18;67.53;97370.53;5045726;28;20457;-68
2023/01/13 04:47:45;;;;;;;1.70;0.87;;;9.40;76.60;;;9.20;67.08;97374.63;5035943;28;20462;-68
2023/01/13 04:50:12;;;;;;;3.80;0.80;;;9.50;76.60;;;9.18;67.58;97379.44;5032496;28;20888;-68
2023/01/13 04:52:40;;;;;;;1.60;1.10;;;9.40;76.60;;;9.11;67.57;97358.97;5032587;28;20481;-66
2023/01/13 04:55:10;;;;;;;3.90;1.00;;;9.40;76.90;;;9.09;67.45;97369.16;5013532;28;20460;-68
2023/01/13 04:57:37;;;;;;;5.90;1.03;;;9.40;77.20;;;9.20;67.18;97373.84;5042158;28;20451;-67
2023/01/13 05:00:06;;;;;;;1.77;1.37;;;9.40;76.90;;;9.22;67.41;97371.72;5032770;28;20531;-70
2023/01/13 05:02:34;;;;;;;1.23;0.77;;;9.40;77.00;;;9.19;67.45;97374.88;5034484;28;20491;-69
2023/01/13 05:05:01;;;;;;;2.43;0.90;;;9.40;77.00;;;9.09;68.12;97371.84;5015577;28;20555;-68
2023/01/13 05:07:28;;;;;;;3.33;0.90;;;9.40;77.00;;;9.06;68.46;97368.56;5032211;28;20489;-69
2023/01/13 05:09:55;;;;;;;1.53;1.07;;;9.40;77.10;;;8.99;68.29;97350.81;5028788;28;20493;-68
2023/01/13 05:18:03;;;;;;;3.70;1.23;;;9.40;77.40;;;9.11;68.28;97364.38;5003678;28;20476;-68
2023/01/13 05:20:30;;;;;;;3.20;1.60;;;9.40;77.50;;;9.09;68.31;97366.47;5042887;28;20769;-68
2023/01/13 05:25:43;;;;;;;3.13;1.90;;;9.30;77.50;;;9.04;68.47;97372.50;5033935;28;20472;-67
2023/01/13 05:28:12;;;;;;;2.53;1.50;;;9.40;77.50;;;9.15;68.02;97365.56;5046809;28;20547;-69
2023/01/13 05:30:42;;;;;;;3.70;2.00;;;9.40;77.50;;;9.03;68.08;97355.53;5050945;28;20495;-68
2023/01/13 05:33:10;;;;;;;6.13;2.00;;;9.40;77.60;;;9.15;68.04;97350.25;5037009;28;20566;-70
2023/01/13 05:35:38;;;;;;;3.83;2.00;;;9.40;77.60;;;9.21;68.05;97368.19;5063852;28;20502;-68
2023/01/13 05:38:06;;;;;;;3.70;1.83;;;9.40;77.60;;;9.24;67.83;97377.72;5059702;28;20974;-71
2023/01/13 05:43:23;;;;;;;4.10;1.60;;;9.40;77.80;;;9.29;68.52;97366.28;5049808;28;20456;-67
2023/01/13 05:45:55;;;;;;;3.40;1.17;;;9.50;77.90;;;9.35;68.09;97371.59;5027024;28;20447;-68
2023/01/13 05:48:25;;;;;;;3.03;1.50;;;9.50;77.80;;;9.32;68.21;97376.59;5046414;28;21010;-68
2023/01/13 05:50:53;;;;;;;4.33;1.30;;;9.50;77.90;;;9.31;68.54;97375.78;5056050;28;20517;-68
2023/01/13 05:53:22;;;;;;;1.10;0.70;;;9.50;78.00;;;9.27;68.46;97369.19;5041195;28;20536;-68
2023/01/13 05:55:49;;;;;;;1.20;1.03;;;9.50;78.00;;;9.31;68.08;97370.38;5042835;28;21076;-68
2023/01/13 05:58:20;;;;;;;0.70;0.67;;;9.50;77.90;;;9.29;68.09;97364.38;5055672;28;20468;-69
2023/01/13 06:00:48;;;;;;;1.93;1.13;;;9.50;77.70;;;9.27;68.27;97368.38;5048152;28;20454;-68
2023/01/13 06:03:18;;;;;;;2.93;0.90;;;9.50;77.90;;;9.24;68.53;97380.41;5064117;28;20455;-68
2023/01/13 06:05:46;;;;;;;3.00;0.93;;;9.50;77.80;;;9.26;68.20;97372.13;5025028;28;20443;-67
2023/01/13 06:08:13;;;;;;;1.70;0.90;;;9.50;77.80;;;9.19;68.41;97353.31;5044174;28;20454;-68
2023/01/13 06:10:40;;;;;;;2.07;1.77;;;9.50;77.80;;;9.33;68.56;97368.31;5049883;28;20464;-68
2023/01/13 06:13:08;;;;;;;2.60;1.27;;;9.50;77.80;;;9.33;67.46;97356.69;5043362;28;20479;-69
2023/01/13 06:15:36;;;;;;;8.53;2.23;;;9.60;77.80;;;9.33;68.34;97367.47;5016079;28;20454;-68
2023/01/13 06:18:04;;;;;;;2.87;1.10;;;9.50;77.70;;;9.38;67.40;97364.13;5034974;28;20630;-68
2023/01/13 06:20:32;;;;;;;2.40;1.50;;;9.50;77.70;;;9.21;68.43;97356.63;5025500;28;20700;-66
2023/01/13 06:23:00;;;;;;;2.50;1.27;;;9.50;77.70;;;9.21;67.65;97359.31;5044266;28;21114;-66
2023/01/13 06:25:39;;;;;;;4.47;1.77;;;9.50;77.60;;;9.33;68.00;97357.53;5045435;28;20499;-67
2023/01/13 06:28:07;;;;;;;2.67;1.40;;;9.50;77.60;;;9.23;68.27;97364.47;5024517;28;20513;-66
2023/01/13 06:30:41;;;;;;;1.57;1.20;;;9.50;77.40;;;9.16;67.96;97351.88;5030412;28;20955;-66
2023/01/13 06:33:12;;;;;;;3.10;1.07;;;9.50;77.70;;;9.33;67.21;97356.69;5046303;28;20467;-68
2023/01/13 06:35:44;;;;;;;5.80;1.30;;;9.50;77.40;;;9.38;66.27;97347.94;5035686;28;20517;-66
2023/01/13 06:38:15;;;;;;;4.63;0.90;;;9.60;77.10;;;9.32;67.12;97357.75;5044785;28;20952;-68
2023/01/13 06:40:43;;;;;;;2.40;0.90;;;9.50;77.00;;;9.33;66.92;97365.63;5034407;28;20496;-67
2023/01/13 06:43:15;;;;;;;1.93;0.87;;;9.50;76.90;;;8.86;66.85;97300.56;5043462;28;20448;-68
2023/01/13 06:45:49;;;;;;;4.80;1.10;;;9.50;76.80;;;9.23;67.92;97357.22;5040411;28;20533;-66
2023/01/13 06:48:18;;;;;;;2.93;1.17;;;9.50;77.20;;;9.14;67.07;97367.47;5041119;28;20465;-67
2023/01/13 06:50:45;;;;;;;2.50;1.00;;;9.40;77.00;;;9.30;67.34;97366.03;5050587;28;20491;-66
2023/01/13 06:53:12;;;;;;;1.83;1.00;;;9.40;77.00;;;8.86;66.26;97293.31;5039607;28;20490;-67
2023/01/13 06:55:39;;;;;;;2.20;1.07;;;9.50;76.80;;;9.27;66.85;97369.19;5056728;28;21261;-65
2023/01/13 06:58:07;;;;;;;140.37;125.97;;;9.40;76.70;;;9.25;66.91;97365.88;5033286;28;20456;-73
2023/01/13 07:00:36;;;;;;;7.67;5.47;;;9.40;76.60;;;9.28;66.30;97365.44;5048878;28;20460;-67
2023/01/13 07:03:10;;;;;;;2.87;1.30;;;9.50;76.70;;;9.25;66.43;97365.06;5022433;28;20459;-66
2023/01/13 07:05:38;;;;;;;2.33;1.13;;;9.50;76.90;;;9.11;66.83;97370.59;5044206;28;20459;-66
2023/01/13 07:08:05;;;;;;;5.30;1.20;;;9.40;76.50;;;9.13;66.73;97348.81;5026917;28;20450;-67
2023/01/13 07:10:33;;;;;;;2.63;1.00;;;9.40;76.50;;;9.25;66.49;97373.97;5047979;28;20539;-67
2023/01/13 07:15:57;;;;;;;3.13;1.30;;;9.40;76.30;;;9.21;65.92;97372.78;5043155;28;20452;-67
2023/01/13 07:18:30;;;;;;;1.43;0.93;;;9.40;76.10;;;9.11;66.60;97362.53;5026733;28;20447;-67
2023/01/13 07:20:59;;;;;;;1.83;0.93;;;9.40;76.20;;;9.04;66.11;97365.28;5046295;28;20473;-67
2023/01/13 07:23:28;;;;;;;4.70;1.00;;;9.30;75.70;;;9.06;65.34;97357.78;5049435;28;21193;-66
2023/01/13 07:25:56;;;;;;;2.37;1.40;;;9.30;75.60;;;8.97;65.99;97364.50;5048410;28;20486;-68
2023/01/13 07:28:23;;;;;;;2.27;1.20;;;9.30;75.60;;;9.02;65.82;97358.44;5042828;28;20460;-68
2023/01/13 07:30:51;;;;;;;2.67;1.03;;;9.30;75.60;;;9.30;66.47;97365.22;5030415;28;20860;-67
2023/01/13 07:33:18;;;;;;;2.63;1.20;;;9.40;76.90;;;9.06;65.30;97365.88;5041844;28;20549;-67
2023/01/13 07:35:48;;;;;;;1.57;1.03;;;9.40;75.50;;;9.14;65.66;97372.84;5047767;28;20486;-67
2023/01/13 07:38:16;;;;;;;3.10;1.20;;;9.40;75.60;;;8.99;64.89;97362.41;5048867;28;20451;-67
2023/01/13 07:40:43;;;;;;;1.53;0.70;;;9.30;75.10;;;9.18;64.57;97365.16;5038072;28;20530;-67
2023/01/13 07:45:58;;;;;;;2.80;1.37;;;9.30;75.30;;;9.04;65.27;97365.28;5047725;28;20469;-67
2023/01/13 07:48:25;;;;;;;2.97;1.60;;;9.30;75.20;;;9.21;65.16;97364.69;5035968;28;20456;-68
2023/01/13 07:50:54;;;;;;;1.43;1.07;;;9.40;75.10;;;9.20;63.88;97368.44;5052045;28;20462;-67
2023/01/13 07:53:23;;;;;;;2.03;1.00;;;9.40;74.90;;;9.10;64.44;97360.03;5046180;28;20482;-66
2023/01/13 07:55:51;;;;;;;1.70;0.93;;;9.40;74.90;;;9.02;65.03;97359.28;5041877;28;20528;-67
2023/01/13 07:58:20;;;;;;;4.50;1.37;;;9.30;74.90;;;9.03;64.96;97360.09;5026829;28;20464;-69
2023/01/13 08:00:47;;;;;;;2.73;1.57;;;9.30;75.00;;;9.02;65.29;97356.59;5056414;28;20452;-70
2023/01/13 08:03:15;;;;;;;2.20;1.20;;;9.30;75.00;;;9.14;64.49;97361.22;5046310;28;20451;-69
2023/01/13 08:05:42;;;;;;;4.57;1.30;;;9.30;74.80;;;9.05;64.62;97361.53;5024964;28;20564;-67
2023/01/13 08:08:10;;;;;;;2.63;1.10;;;9.30;74.80;;;9.20;64.91;97363.06;5043117;28;20526;-69
2023/01/13 08:10:37;;;;;;;3.93;1.50;;;9.40;74.70;;;9.18;64.37;97365.16;5017895;28;20460;-68
2023/01/13 08:13:18;;;;;;;1.90;1.27;;;9.40;74.70;;;9.07;64.69;97358.59;5034958;28;20458;-68
2023/01/13 08:15:50;;;;;;;3.07;1.30;;;9.30;74.70;;;9.03;64.94;97366.31;5041580;28;20467;-67
2023/01/13 08:18:20;;;;;;;2.90;1.07;;;9.30;74.80;;;8.89;65.08;97321.69;5017737;28;20477;-68
2023/01/13 08:20:48;;;;;;;1.57;1.17;;;9.30;74.90;;;8.98;64.97;97358.06;5039422;28;20457;-69
2023/01/13 08:23:17;;;;;;;2.27;1.17;;;9.30;74.70;;;9.19;64.71;97359.53;5038502;28;20674;-68
2023/01/13 08:25:46;;;;;;;2.20;1.50;;;9.40;74.60;;;9.16;65.41;97370.75;5024895;28;20503;-69
2023/01/13 08:28:16;;;;;;;2.30;1.70;;;9.40;74.70;;;9.39;64.93;97365.75;5038980;28;20464;-70
2023/01/13 08:30:44;;;;;;;2.20;1.20;;;9.50;75.20;;;9.33;64.33;97360.22;5028248;28;20455;-69
2023/01/13 08:33:13;;;;;;;5.67;1.63;;;9.50;74.60;;;9.29;64.04;97364.38;5029382;28;20526;-69
2023/01/13 08:35:41;;;;;;;3.90;1.10;;;9.50;74.50;;;9.44;64.97;97361.34;5031824;28;20465;-69
2023/01/13 08:38:09;;;;;;;1.20;1.10;;;9.60;75.50;;;9.25;65.52;97368.59;5041405;28;20475;-68
2023/01/13 08:40:40;;;;;;;2.07;1.20;;;9.60;75.50;;;9.23;66.26;97367.16;5034116;28;20554;-69
2023/01/13 08:43:07;;;;;;;2.20;1.20;;;9.50;76.20;;;9.42;67.18;97368.84;5016790;28;20551;-69
2023/01/13 08:45:34;;;;;;;5.57;1.77;;;9.50;76.60;;;9.44;66.74;97371.28;5037149;28;21030;-68
2023/01/13 08:48:02;;;;;;;2.07;1.10;;;9.60;77.00;;;9.33;66.52;97354.00;5040482;28;20763;-67
2023/01/13 08:50:29;;;;;;;2.70;1.03;;;9.60;76.80;;;9.48;66.92;97370.63;5016785;28;20504;-67
2023/01/13 08:52:56;;;;;;;1.60;1.33;;;9.60;76.70;;;9.49;66.44;97368.78;5034037;28;20465;-69
2023/01/13 08:55:23;;;;;;;3.80;1.20;;;9.70;76.70;;;9.53;67.01;97372.66;5012042;28;20856;-69
2023/01/13 08:57:52;;;;;;;3.47;1.00;;;9.70;76.80;;;9.44;68.08;97365.91;5027536;28;20522;-68
2023/01/13 09:00:20;;;;;;;1.77;1.60;;;9.70;77.60;;;9.45;67.07;97375.63;5033252;28;20899;-68
2023/01/13 09:02:47;;;;;;;1.77;1.10;;;9.60;77.40;;;9.60;67.40;97384.19;5037483;28;20465;-69
2023/01/13 09:05:14;;;;;;;1.40;1.30;;;9.60;77.80;;;9.40;68.57;97383.59;5040073;28;20454;-69
2023/01/13 09:07:41;;;;;;;3.07;1.63;;;9.60;77.80;;;9.38;68.55;97391.06;5032888;28;20551;-71
2023/01/13 09:10:10;;;;;;;1.70;1.23;;;9.60;78.00;;;9.41;68.82;97388.75;5013150;28;20572;-68
2023/01/13 09:15:23;;;;;;;1.20;1.10;;;9.70;78.50;;;9.45;69.72;97389.97;5040666;28;20626;-67
2023/01/13 09:17:51;;;;;;;3.13;1.80;;;9.70;78.60;;;9.75;69.51;97396.47;5021123;28;20904;-68
2023/01/13 09:20:18;;;;;;;2.30;1.03;;;9.80;79.10;;;9.47;69.20;97384.31;5045773;28;20446;-69
2023/01/13 09:22:46;;;;;;;2.97;1.07;;;9.80;78.60;;;9.67;69.39;97394.91;5054313;28;20495;-67
2023/01/13 09:25:13;;;;;;;3.00;1.10;;;9.80;78.70;;;9.72;68.96;97380.75;5049677;28;20479;-69
2023/01/13 09:27:40;;;;;;;1.17;0.70;;;10.00;77.80;;;9.73;69.21;97403.97;5050267;28;20954;-67
2023/01/13 09:30:09;;;;;;;1.07;0.97;;;10.00;77.90;;;9.54;70.83;97403.97;5057366;28;20458;-68
2023/01/13 09:32:38;;;;;;;0.83;0.73;;;9.90;79.60;;;9.79;70.88;97403.09;5048818;28;20877;-69
2023/01/13 09:35:06;;;;;;;1.93;0.77;;;9.90;80.30;;;9.90;69.42;97409.59;5045733;28;20479;-69
2023/01/13 09:37:37;;;;;;;0.73;0.73;;;10.00;78.70;;;9.95;68.70;97411.63;5061637;28;20800;-69
2023/01/13 09:40:08;;;;;;;2.00;0.90;;;10.10;78.50;;;9.80;70.40;97404.72;5041415;28;20462;-67
2023/01/13 09:45:35;;;;;;;3.23;1.50;;;9.90;81.10;;;9.39;73.57;97408.91;5038952;28;20461;-67
2023/01/13 09:48:09;;;;;;;1.30;0.80;;;9.70;82.00;;;9.55;73.39;97429.88;5056130;28;20537;-68
2023/01/13 09:50:54;;;;;;;1.10;0.77;;;9.60;82.40;;;9.35;75.26;97436.31;5042485;28;20461;-67
2023/01/13 09:53:29;;;;;;;1.53;1.00;;;9.50;83.70;;;9.23;76.65;97470.41;5026743;28;22129;-68
2023/01/13 09:55:56;;;;;;;1.70;1.00;;;9.50;84.80;;;8.78;80.90;97485.66;5044202;28;20458;-68
2023/01/13 09:58:24;;;;;;;2.37;1.33;;;9.20;88.50;;;8.50;83.44;97478.78;5034796;28;20513;-69
2023/01/13 10:01:09;;;;;;;1.33;1.00;;;8.80;91.70;;;8.35;84.91;97478.19;5046174;28;20478;-68
2023/01/13 10:03:37;;;;;;;1.80;1.20;;;8.70;93.80;;;8.42;85.16;97476.31;5041778;28;20552;-68
2023/01/13 10:06:13;;;;;;;2.10;0.77;;;8.60;95.80;;;8.48;85.07;97480.81;5040947;28;20454;-69
2023/01/13 10:08:43;;;;;;;1.70;1.23;;;8.60;97.00;;;8.20;86.71;97489.25;5043042;28;20455;-70
2023/01/13 10:14:05;;;;;;;1.50;1.33;;;8.40;97.80;;;8.05;87.23;97492.19;5037210;28;20511;-67
2023/01/13 10:16:42;;;;;;;0.97;0.80;;;8.30;97.50;;;8.03;86.91;97505.03;5020483;28;20937;-78
2023/01/13 10:19:19;;;;;;;1.53;0.90;;;8.30;97.90;;;7.98;88.30;97499.47;5042674;28;20589;-74
2023/01/13 10:22:22;;;;;;;4.30;1.10;;;8.30;99.30;;;8.07;88.50;97476.66;5023673;28;21738;-71
2023/01/13 10:25:20;;;;;;;1.90;1.40;;;8.20;99.90;;;8.23;88.49;97486.13;5025022;28;20471;-78
2023/01/13 10:27:50;;;;;;;6.20;1.63;;;8.30;99.90;;;8.27;87.95;97486.53;5025474;28;20801;-71
2023/01/13 10:30:22;;;;;;;3.40;1.43;;;8.30;99.90;;;8.19;87.31;97488.41;5043769;28;20493;-72
2023/01/13 10:32:55;;;;;;;1.77;1.20;;;8.30;99.90;;;8.16;87.73;97488.00;5042711;28;21021;-72
2023/01/13 10:35:54;;;;;;;3.87;2.17;;;8.40;99.60;;;8.14;88.83;97496.31;5050802;28;20471;-72
2023/01/13 10:38:25;;;;;;;4.03;1.70;;;8.30;99.90;;;8.27;88.70;97500.81;5048466;28;20455;-72
2023/01/13 10:40:56;;;;;;;3.83;2.10;;;8.30;99.90;;;8.27;87.66;97500.00;5050997;28;20451;-70
2023/01/13 10:43:24;;;;;;;3.00;1.50;;;8.40;99.90;;;8.23;88.64;97519.22;5032730;28;20569;-72
2023/01/13 10:45:58;;;;;;;4.33;2.00;;;8.40;99.90;;;8.29;88.65;97506.78;5044862;28;21011;-72
2023/01/13 10:48:35;;;;;;;6.53;2.50;;;8.40;99.90;;;8.06;89.14;97510.81;5055467;28;20457;-74
2023/01/13 10:51:24;;;;;;;5.40;2.30;;;8.30;99.90;;;8.11;89.51;97512.84;5038576;28;20823;-72
2023/01/13 10:53:58;;;;;;;3.67;1.87;;;8.30;99.90;;;7.82;88.17;97493.50;5049325;28;20455;-73
2023/01/13 10:56:30;;;;;;;3.33;1.57;;;8.20;98.40;;;8.10;87.69;97494.25;5054920;28;20462;-73
2023/01/13 10:59:17;;;;;;;1.23;1.03;;;8.20;99.00;;;8.05;87.66;97486.81;5048271;28;20476;-71
2023/01/13 11:02:00;;;;;;;3.03;1.57;;;8.30;98.30;;;8.08;86.03;97475.59;5045182;28;20480;-72
2023/01/13 11:04:33;;;;;;;1.60;1.10;;;8.40;96.00;;;8.19;86.03;97471.44;5053462;28;20999;-71
2023/01/13 11:07:02;;;;;;;2.80;1.27;;;8.40;95.60;;;8.37;85.91;97481.50;5030968;28;20432;-72
2023/01/13 11:09:31;;;;;;;3.10;1.70;;;8.50;95.90;;;8.33;85.14;97481.09;5031599;28;20456;-72
2023/01/13 11:11:59;;;;;;;3.03;2.40;;;8.50;95.30;;;8.30;85.07;97467.25;5032964;28;20569;-72
2023/01/13 11:14:38;;;;;;;1.37;1.03;;;8.50;95.20;;;8.30;85.22;97478.84;5031689;28;20780;-73
2023/01/13 11:17:27;;;;;;;1.80;1.23;;;8.50;95.10;;;8.64;83.78;97484.09;5048960;28;20521;-70
2023/01/13 11:20:00;;;;;;;1.60;0.87;;;8.70;94.60;;;8.84;82.73;97477.75;5027700;28;20453;-71
2023/01/13 11:22:34;;;;;;;3.63;1.20;;;8.80;94.00;;;8.99;81.83;97478.25;5036393;28;20484;-72
2023/01/13 11:25:04;;;;;;;1.17;0.80;;;8.90;93.50;;;9.12;81.18;97484.59;5044553;28;20479;-71
2023/01/13 11:27:44;;;;;;;2.10;1.07;;;9.10;93.20;;;9.05;80.68;97482.78;5027467;28;20483;-71
2023/01/13 11:30:25;;;;;;;2.70;1.17;;;9.10;91.90;;;8.85;81.54;97479.41;5040797;28;20459;-72